sensor_id;sensor_type;location;lat;lon;timestamp;P1;durP1;ratioP1;P2;durP2;ratioP2
64875;SDS011;51369;49.862;9.908;2023-03-07T00:00:29;23.48;;;12.45;;
64875;SDS011;51369;49.862;9.908;2023-03-07T00:02:55;31.48;;;13.52;;
64875;SDS011;51369;49.862;9.908;2023-03-07T00:05:21;27.65;;;13.85;;
64875;SDS011;51369;49.862;9.908;2023-03-07T00:07:46;26.63;;;13.70;;
64875;SDS011;51369;49.862;9.908;2023-03-07T00:10:11;28.13;;;13.55;;
64875;SDS011;51369;49.862;9.908;2023-03-07T00:12:38;24.42;;;13.60;;
64875;SDS011;51369;49.862;9.908;2023-03-07T00:15:03;24.77;;;12.90;;
64875;SDS011;51369;49.862;9.908;2023-03-07T00:17:29;25.73;;;12.63;;
64875;SDS011;51369;49.862;9.908;2023-03-07T00:19:55;26.25;;;12.82;;
64875;SDS011;51369;49.862;9.908;2023-03-07T00:22:20;27.92;;;13.88;;
64875;SDS011;51369;49.862;9.908;2023-03-07T00:24:46;24.95;;;13.32;;
64875;SDS011;51369;49.862;9.908;2023-03-07T00:27:12;26.50;;;13.68;;
64875;SDS011;51369;49.862;9.908;2023-03-07T00:29:38;26.10;;;14.43;;
64875;SDS011;51369;49.862;9.908;2023-03-07T00:32:03;27.95;;;13.68;;
64875;SDS011;51369;49.862;9.908;2023-03-07T00:34:29;26.05;;;12.65;;
64875;SDS011;51369;49.862;9.908;2023-03-07T00:36:54;25.98;;;14.02;;
64875;SDS011;51369;49.862;9.908;2023-03-07T00:39:20;25.92;;;13.07;;
64875;SDS011;51369;49.862;9.908;2023-03-07T00:41:45;25.27;;;13.20;;
64875;SDS011;51369;49.862;9.908;2023-03-07T00:44:10;28.35;;;13.90;;
64875;SDS011;51369;49.862;9.908;2023-03-07T00:46:36;27.33;;;13.70;;
64875;SDS011;51369;49.862;9.908;2023-03-07T00:49:02;23.50;;;12.93;;
64875;SDS011;51369;49.862;9.908;2023-03-07T00:51:27;25.27;;;13.07;;
64875;SDS011;51369;49.862;9.908;2023-03-07T00:53:53;30.15;;;14.27;;
64875;SDS011;51369;49.862;9.908;2023-03-07T00:56:23;26.92;;;14.10;;
64875;SDS011;51369;49.862;9.908;2023-03-07T00:58:49;28.17;;;13.98;;
64875;SDS011;51369;49.862;9.908;2023-03-07T01:01:16;28.25;;;14.38;;
64875;SDS011;51369;49.862;9.908;2023-03-07T01:03:45;26.75;;;13.57;;
64875;SDS011;51369;49.862;9.908;2023-03-07T01:06:14;25.33;;;13.10;;
64875;SDS011;51369;49.862;9.908;2023-03-07T01:08:42;26.60;;;13.32;;
64875;SDS011;51369;49.862;9.908;2023-03-07T01:11:08;27.33;;;13.60;;
64875;SDS011;51369;49.862;9.908;2023-03-07T01:13:34;30.60;;;14.13;;
64875;SDS011;51369;49.862;9.908;2023-03-07T01:18:35;30.02;;;14.60;;
64875;SDS011;51369;49.862;9.908;2023-03-07T01:21:01;28.52;;;14.20;;
64875;SDS011;51369;49.862;9.908;2023-03-07T01:23:34;31.92;;;14.68;;
64875;SDS011;51369;49.862;9.908;2023-03-07T01:25:59;27.90;;;14.52;;
64875;SDS011;51369;49.862;9.908;2023-03-07T01:28:25;28.08;;;13.05;;
64875;SDS011;51369;49.862;9.908;2023-03-07T01:30:57;30.35;;;14.90;;
64875;SDS011;51369;49.862;9.908;2023-03-07T01:33:23;29.17;;;13.88;;
64875;SDS011;51369;49.862;9.908;2023-03-07T01:35:49;31.50;;;16.00;;
64875;SDS011;51369;49.862;9.908;2023-03-07T01:38:14;34.60;;;15.35;;
64875;SDS011;51369;49.862;9.908;2023-03-07T01:40:40;31.08;;;15.80;;
64875;SDS011;51369;49.862;9.908;2023-03-07T01:48:53;34.17;;;15.82;;
64875;SDS011;51369;49.862;9.908;2023-03-07T01:51:22;31.05;;;15.38;;
64875;SDS011;51369;49.862;9.908;2023-03-07T01:53:50;34.03;;;15.43;;
64875;SDS011;51369;49.862;9.908;2023-03-07T01:56:17;31.73;;;14.32;;
64875;SDS011;51369;49.862;9.908;2023-03-07T01:58:44;30.48;;;15.80;;
64875;SDS011;51369;49.862;9.908;2023-03-07T02:01:11;30.45;;;14.50;;
64875;SDS011;51369;49.862;9.908;2023-03-07T02:03:49;28.63;;;15.13;;
64875;SDS011;51369;49.862;9.908;2023-03-07T02:06:19;29.70;;;15.98;;
64875;SDS011;51369;49.862;9.908;2023-03-07T02:08:45;34.55;;;17.33;;
64875;SDS011;51369;49.862;9.908;2023-03-07T02:11:13;33.50;;;16.27;;
64875;SDS011;51369;49.862;9.908;2023-03-07T02:13:40;33.70;;;15.77;;
64875;SDS011;51369;49.862;9.908;2023-03-07T02:16:05;31.38;;;15.45;;
64875;SDS011;51369;49.862;9.908;2023-03-07T02:18:33;35.78;;;16.17;;
64875;SDS011;51369;49.862;9.908;2023-03-07T02:21:18;30.92;;;15.30;;
64875;SDS011;51369;49.862;9.908;2023-03-07T02:24:17;31.80;;;15.50;;
64875;SDS011;51369;49.862;9.908;2023-03-07T02:26:50;33.67;;;16.02;;
64875;SDS011;51369;49.862;9.908;2023-03-07T02:29:17;33.72;;;16.27;;
64875;SDS011;51369;49.862;9.908;2023-03-07T02:31:45;34.53;;;17.63;;
64875;SDS011;51369;49.862;9.908;2023-03-07T02:34:29;33.72;;;16.88;;
64875;SDS011;51369;49.862;9.908;2023-03-07T02:39:30;34.65;;;17.48;;
64875;SDS011;51369;49.862;9.908;2023-03-07T02:42:00;32.83;;;15.80;;
64875;SDS011;51369;49.862;9.908;2023-03-07T02:44:42;31.10;;;15.45;;
64875;SDS011;51369;49.862;9.908;2023-03-07T02:47:09;35.53;;;16.70;;
64875;SDS011;51369;49.862;9.908;2023-03-07T02:49:35;34.70;;;17.27;;
64875;SDS011;51369;49.862;9.908;2023-03-07T02:52:01;35.88;;;17.88;;
64875;SDS011;51369;49.862;9.908;2023-03-07T02:54:28;32.35;;;16.08;;
64875;SDS011;51369;49.862;9.908;2023-03-07T02:56:54;33.97;;;16.27;;
64875;SDS011;51369;49.862;9.908;2023-03-07T02:59:20;32.13;;;17.10;;
64875;SDS011;51369;49.862;9.908;2023-03-07T03:01:45;34.67;;;16.58;;
64875;SDS011;51369;49.862;9.908;2023-03-07T03:04:11;35.33;;;16.92;;
64875;SDS011;51369;49.862;9.908;2023-03-07T03:06:36;39.78;;;17.52;;
64875;SDS011;51369;49.862;9.908;2023-03-07T03:09:02;34.63;;;16.48;;
64875;SDS011;51369;49.862;9.908;2023-03-07T03:11:27;33.00;;;16.40;;
64875;SDS011;51369;49.862;9.908;2023-03-07T03:13:53;30.95;;;16.38;;
64875;SDS011;51369;49.862;9.908;2023-03-07T03:16:20;34.60;;;16.67;;
64875;SDS011;51369;49.862;9.908;2023-03-07T03:18:45;42.42;;;17.92;;
64875;SDS011;51369;49.862;9.908;2023-03-07T03:21:11;37.15;;;17.92;;
64875;SDS011;51369;49.862;9.908;2023-03-07T03:23:36;37.90;;;17.38;;
64875;SDS011;51369;49.862;9.908;2023-03-07T03:26:07;33.45;;;16.33;;
64875;SDS011;51369;49.862;9.908;2023-03-07T03:28:35;36.08;;;16.92;;
64875;SDS011;51369;49.862;9.908;2023-03-07T03:31:03;31.77;;;16.85;;
64875;SDS011;51369;49.862;9.908;2023-03-07T03:33:37;32.33;;;16.15;;
64875;SDS011;51369;49.862;9.908;2023-03-07T03:36:11;34.75;;;17.13;;
64875;SDS011;51369;49.862;9.908;2023-03-07T03:38:39;33.03;;;17.00;;
64875;SDS011;51369;49.862;9.908;2023-03-07T03:41:07;31.90;;;15.95;;
64875;SDS011;51369;49.862;9.908;2023-03-07T03:43:36;35.17;;;17.08;;
64875;SDS011;51369;49.862;9.908;2023-03-07T03:46:02;35.15;;;16.70;;
64875;SDS011;51369;49.862;9.908;2023-03-07T03:48:28;33.38;;;16.95;;
64875;SDS011;51369;49.862;9.908;2023-03-07T03:51:04;37.60;;;16.20;;
64875;SDS011;51369;49.862;9.908;2023-03-07T03:53:32;29.65;;;15.95;;
64875;SDS011;51369;49.862;9.908;2023-03-07T03:56:21;28.80;;;15.30;;
64875;SDS011;51369;49.862;9.908;2023-03-07T03:58:46;31.40;;;14.77;;
64875;SDS011;51369;49.862;9.908;2023-03-07T04:01:13;30.85;;;15.98;;
64875;SDS011;51369;49.862;9.908;2023-03-07T04:03:40;29.15;;;15.00;;
64875;SDS011;51369;49.862;9.908;2023-03-07T04:06:14;30.77;;;15.38;;
64875;SDS011;51369;49.862;9.908;2023-03-07T04:08:44;33.00;;;15.27;;
64875;SDS011;51369;49.862;9.908;2023-03-07T04:11:11;29.00;;;14.77;;
64875;SDS011;51369;49.862;9.908;2023-03-07T04:13:37;25.60;;;13.43;;
64875;SDS011;51369;49.862;9.908;2023-03-07T04:16:02;25.38;;;13.68;;
64875;SDS011;51369;49.862;9.908;2023-03-07T04:18:28;31.92;;;16.00;;
64875;SDS011;51369;49.862;9.908;2023-03-07T04:20:54;28.58;;;14.38;;
64875;SDS011;51369;49.862;9.908;2023-03-07T04:23:21;27.88;;;14.68;;
64875;SDS011;51369;49.862;9.908;2023-03-07T04:25:48;28.70;;;14.15;;
64875;SDS011;51369;49.862;9.908;2023-03-07T04:28:15;25.85;;;13.32;;
64875;SDS011;51369;49.862;9.908;2023-03-07T04:30:42;26.75;;;13.90;;
64875;SDS011;51369;49.862;9.908;2023-03-07T04:33:07;25.90;;;13.38;;
64875;SDS011;51369;49.862;9.908;2023-03-07T04:35:33;24.30;;;13.25;;
64875;SDS011;51369;49.862;9.908;2023-03-07T04:37:59;23.48;;;12.70;;
64875;SDS011;51369;49.862;9.908;2023-03-07T04:40:24;25.98;;;13.48;;
64875;SDS011;51369;49.862;9.908;2023-03-07T04:42:50;21.98;;;11.93;;
64875;SDS011;51369;49.862;9.908;2023-03-07T04:45:17;23.20;;;12.65;;
64875;SDS011;51369;49.862;9.908;2023-03-07T04:47:42;23.70;;;12.77;;
64875;SDS011;51369;49.862;9.908;2023-03-07T04:50:08;23.25;;;11.68;;
64875;SDS011;51369;49.862;9.908;2023-03-07T04:52:35;23.80;;;12.38;;
64875;SDS011;51369;49.862;9.908;2023-03-07T04:55:00;22.15;;;11.70;;
64875;SDS011;51369;49.862;9.908;2023-03-07T04:57:26;20.65;;;11.80;;
64875;SDS011;51369;49.862;9.908;2023-03-07T04:59:52;19.05;;;10.43;;
64875;SDS011;51369;49.862;9.908;2023-03-07T05:02:20;20.77;;;11.57;;
64875;SDS011;51369;49.862;9.908;2023-03-07T05:04:46;20.42;;;11.25;;
64875;SDS011;51369;49.862;9.908;2023-03-07T05:07:11;21.67;;;11.55;;
64875;SDS011;51369;49.862;9.908;2023-03-07T05:09:37;21.27;;;10.32;;
64875;SDS011;51369;49.862;9.908;2023-03-07T05:12:03;20.45;;;11.48;;
64875;SDS011;51369;49.862;9.908;2023-03-07T05:14:29;19.23;;;10.82;;
64875;SDS011;51369;49.862;9.908;2023-03-07T05:16:54;15.70;;;9.95;;
64875;SDS011;51369;49.862;9.908;2023-03-07T05:19:20;19.67;;;10.48;;
64875;SDS011;51369;49.862;9.908;2023-03-07T05:21:47;21.67;;;11.27;;
64875;SDS011;51369;49.862;9.908;2023-03-07T05:24:13;19.13;;;11.07;;
64875;SDS011;51369;49.862;9.908;2023-03-07T05:26:40;17.77;;;9.57;;
64875;SDS011;51369;49.862;9.908;2023-03-07T05:29:06;19.45;;;10.32;;
64875;SDS011;51369;49.862;9.908;2023-03-07T05:31:31;22.33;;;10.77;;
64875;SDS011;51369;49.862;9.908;2023-03-07T05:33:57;17.65;;;10.13;;
64875;SDS011;51369;49.862;9.908;2023-03-07T05:36:23;21.00;;;11.05;;
64875;SDS011;51369;49.862;9.908;2023-03-07T05:38:48;19.80;;;11.95;;
64875;SDS011;51369;49.862;9.908;2023-03-07T05:41:14;19.17;;;10.77;;
64875;SDS011;51369;49.862;9.908;2023-03-07T05:43:41;18.92;;;10.95;;
64875;SDS011;51369;49.862;9.908;2023-03-07T05:46:06;19.27;;;11.23;;
64875;SDS011;51369;49.862;9.908;2023-03-07T05:48:32;21.42;;;12.15;;
64875;SDS011;51369;49.862;9.908;2023-03-07T05:50:58;18.92;;;11.13;;
64875;SDS011;51369;49.862;9.908;2023-03-07T05:53:25;23.17;;;12.23;;
64875;SDS011;51369;49.862;9.908;2023-03-07T05:55:50;21.45;;;12.57;;
64875;SDS011;51369;49.862;9.908;2023-03-07T05:58:17;21.02;;;11.50;;
64875;SDS011;51369;49.862;9.908;2023-03-07T06:00:44;22.38;;;12.68;;
64875;SDS011;51369;49.862;9.908;2023-03-07T06:03:09;23.73;;;13.95;;
64875;SDS011;51369;49.862;9.908;2023-03-07T06:05:35;27.77;;;15.88;;
64875;SDS011;51369;49.862;9.908;2023-03-07T06:08:02;24.10;;;13.65;;
64875;SDS011;51369;49.862;9.908;2023-03-07T06:10:28;29.55;;;14.05;;
64875;SDS011;51369;49.862;9.908;2023-03-07T06:12:53;27.33;;;15.20;;
64875;SDS011;51369;49.862;9.908;2023-03-07T06:15:19;29.27;;;14.85;;
64875;SDS011;51369;49.862;9.908;2023-03-07T06:17:48;26.02;;;15.10;;
64875;SDS011;51369;49.862;9.908;2023-03-07T06:20:14;27.95;;;14.68;;
64875;SDS011;51369;49.862;9.908;2023-03-07T06:22:40;27.98;;;15.77;;
64875;SDS011;51369;49.862;9.908;2023-03-07T06:25:06;27.35;;;15.77;;
64875;SDS011;51369;49.862;9.908;2023-03-07T06:27:33;31.20;;;16.38;;
64875;SDS011;51369;49.862;9.908;2023-03-07T06:30:02;27.92;;;16.00;;
64875;SDS011;51369;49.862;9.908;2023-03-07T06:32:30;29.30;;;16.15;;
64875;SDS011;51369;49.862;9.908;2023-03-07T06:34:56;34.47;;;16.73;;
64875;SDS011;51369;49.862;9.908;2023-03-07T06:37:22;31.10;;;16.50;;
64875;SDS011;51369;49.862;9.908;2023-03-07T06:39:48;33.10;;;16.90;;
64875;SDS011;51369;49.862;9.908;2023-03-07T06:42:13;39.25;;;20.35;;
64875;SDS011;51369;49.862;9.908;2023-03-07T06:44:39;31.95;;;17.52;;
64875;SDS011;51369;49.862;9.908;2023-03-07T06:47:04;36.25;;;19.17;;
64875;SDS011;51369;49.862;9.908;2023-03-07T06:49:30;34.67;;;18.67;;
64875;SDS011;51369;49.862;9.908;2023-03-07T06:51:56;33.75;;;18.88;;
64875;SDS011;51369;49.862;9.908;2023-03-07T06:54:21;37.22;;;19.67;;
64875;SDS011;51369;49.862;9.908;2023-03-07T06:56:47;34.83;;;18.20;;
64875;SDS011;51369;49.862;9.908;2023-03-07T06:59:16;34.60;;;19.13;;
64875;SDS011;51369;49.862;9.908;2023-03-07T07:01:42;43.70;;;20.73;;
64875;SDS011;51369;49.862;9.908;2023-03-07T07:04:08;35.17;;;19.00;;
64875;SDS011;51369;49.862;9.908;2023-03-07T07:06:35;36.83;;;19.92;;
64875;SDS011;51369;49.862;9.908;2023-03-07T07:09:01;33.78;;;18.77;;
64875;SDS011;51369;49.862;9.908;2023-03-07T07:11:32;32.03;;;17.90;;
64875;SDS011;51369;49.862;9.908;2023-03-07T07:13:58;38.25;;;18.88;;
64875;SDS011;51369;49.862;9.908;2023-03-07T07:16:23;38.15;;;18.83;;
64875;SDS011;51369;49.862;9.908;2023-03-07T07:18:49;35.72;;;18.75;;
64875;SDS011;51369;49.862;9.908;2023-03-07T07:21:17;38.22;;;18.38;;
64875;SDS011;51369;49.862;9.908;2023-03-07T07:23:42;35.92;;;17.80;;
64875;SDS011;51369;49.862;9.908;2023-03-07T07:26:08;36.35;;;18.52;;
64875;SDS011;51369;49.862;9.908;2023-03-07T07:28:34;30.98;;;16.42;;
64875;SDS011;51369;49.862;9.908;2023-03-07T07:31:00;30.65;;;16.73;;
64875;SDS011;51369;49.862;9.908;2023-03-07T07:33:27;32.63;;;16.75;;
64875;SDS011;51369;49.862;9.908;2023-03-07T07:35:53;29.50;;;16.15;;
64875;SDS011;51369;49.862;9.908;2023-03-07T07:38:18;29.48;;;15.82;;
64875;SDS011;51369;49.862;9.908;2023-03-07T07:40:44;32.55;;;16.88;;
64875;SDS011;51369;49.862;9.908;2023-03-07T07:43:12;36.85;;;18.80;;
64875;SDS011;51369;49.862;9.908;2023-03-07T07:45:54;31.33;;;15.77;;
64875;SDS011;51369;49.862;9.908;2023-03-07T07:48:20;30.70;;;16.10;;
64875;SDS011;51369;49.862;9.908;2023-03-07T07:50:46;28.65;;;15.75;;
64875;SDS011;51369;49.862;9.908;2023-03-07T07:53:12;33.15;;;16.08;;
64875;SDS011;51369;49.862;9.908;2023-03-07T07:55:41;30.92;;;16.10;;
64875;SDS011;51369;49.862;9.908;2023-03-07T07:58:08;26.83;;;15.13;;
64875;SDS011;51369;49.862;9.908;2023-03-07T08:00:33;34.20;;;16.98;;
64875;SDS011;51369;49.862;9.908;2023-03-07T08:02:59;27.25;;;15.85;;
64875;SDS011;51369;49.862;9.908;2023-03-07T08:05:25;31.00;;;14.82;;
64875;SDS011;51369;49.862;9.908;2023-03-07T08:07:50;27.02;;;15.15;;
64875;SDS011;51369;49.862;9.908;2023-03-07T08:10:16;29.35;;;15.48;;
64875;SDS011;51369;49.862;9.908;2023-03-07T08:12:43;27.92;;;15.18;;
64875;SDS011;51369;49.862;9.908;2023-03-07T08:15:09;26.63;;;14.68;;
64875;SDS011;51369;49.862;9.908;2023-03-07T08:17:36;29.00;;;14.65;;
64875;SDS011;51369;49.862;9.908;2023-03-07T08:20:01;27.17;;;14.00;;
64875;SDS011;51369;49.862;9.908;2023-03-07T08:22:32;29.75;;;15.07;;
64875;SDS011;51369;49.862;9.908;2023-03-07T08:24:58;25.50;;;13.73;;
64875;SDS011;51369;49.862;9.908;2023-03-07T08:27:24;27.27;;;14.15;;
64875;SDS011;51369;49.862;9.908;2023-03-07T08:29:49;23.60;;;13.35;;
64875;SDS011;51369;49.862;9.908;2023-03-07T08:32:15;25.98;;;12.85;;
64875;SDS011;51369;49.862;9.908;2023-03-07T08:34:40;22.45;;;12.90;;
64875;SDS011;51369;49.862;9.908;2023-03-07T08:37:05;21.85;;;12.48;;
64875;SDS011;51369;49.862;9.908;2023-03-07T08:39:31;24.80;;;12.02;;
64875;SDS011;51369;49.862;9.908;2023-03-07T08:41:56;18.92;;;11.07;;
64875;SDS011;51369;49.862;9.908;2023-03-07T08:44:23;22.27;;;11.85;;
64875;SDS011;51369;49.862;9.908;2023-03-07T08:46:49;22.90;;;12.07;;
64875;SDS011;51369;49.862;9.908;2023-03-07T08:49:14;22.80;;;11.88;;
64875;SDS011;51369;49.862;9.908;2023-03-07T08:51:39;24.17;;;12.27;;
64875;SDS011;51369;49.862;9.908;2023-03-07T08:54:05;21.00;;;11.20;;
64875;SDS011;51369;49.862;9.908;2023-03-07T08:56:30;24.83;;;12.25;;
64875;SDS011;51369;49.862;9.908;2023-03-07T08:58:56;21.75;;;10.93;;
64875;SDS011;51369;49.862;9.908;2023-03-07T09:01:21;18.92;;;11.40;;
64875;SDS011;51369;49.862;9.908;2023-03-07T09:03:46;19.58;;;10.88;;
64875;SDS011;51369;49.862;9.908;2023-03-07T09:06:13;24.02;;;10.90;;
64875;SDS011;51369;49.862;9.908;2023-03-07T09:08:43;17.08;;;9.57;;
64875;SDS011;51369;49.862;9.908;2023-03-07T09:11:09;19.67;;;10.60;;
64875;SDS011;51369;49.862;9.908;2023-03-07T09:13:34;21.23;;;12.00;;
64875;SDS011;51369;49.862;9.908;2023-03-07T09:16:02;17.02;;;10.32;;
64875;SDS011;51369;49.862;9.908;2023-03-07T09:18:28;20.25;;;11.38;;
64875;SDS011;51369;49.862;9.908;2023-03-07T09:20:58;28.23;;;11.65;;
64875;SDS011;51369;49.862;9.908;2023-03-07T09:23:24;17.85;;;10.20;;
64875;SDS011;51369;49.862;9.908;2023-03-07T09:25:50;18.58;;;9.70;;
64875;SDS011;51369;49.862;9.908;2023-03-07T09:28:15;20.52;;;9.68;;
64875;SDS011;51369;49.862;9.908;2023-03-07T09:30:41;18.65;;;10.63;;
64875;SDS011;51369;49.862;9.908;2023-03-07T09:33:06;19.52;;;10.52;;
64875;SDS011;51369;49.862;9.908;2023-03-07T09:35:32;17.40;;;9.98;;
64875;SDS011;51369;49.862;9.908;2023-03-07T09:37:57;16.98;;;9.65;;
64875;SDS011;51369;49.862;9.908;2023-03-07T09:40:23;18.20;;;10.68;;
64875;SDS011;51369;49.862;9.908;2023-03-07T09:43:12;18.20;;;9.48;;
64875;SDS011;51369;49.862;9.908;2023-03-07T09:52:13;14.75;;;8.95;;
64875;SDS011;51369;49.862;9.908;2023-03-07T09:54:59;17.75;;;9.75;;
64875;SDS011;51369;49.862;9.908;2023-03-07T09:57:33;13.05;;;8.75;;
64875;SDS011;51369;49.862;9.908;2023-03-07T10:05:48;20.10;;;9.35;;
64875;SDS011;51369;49.862;9.908;2023-03-07T10:08:19;15.75;;;8.43;;
64875;SDS011;51369;49.862;9.908;2023-03-07T10:16:48;11.13;;;6.88;;
64875;SDS011;51369;49.862;9.908;2023-03-07T10:19:30;15.02;;;7.85;;
64875;SDS011;51369;49.862;9.908;2023-03-07T10:22:11;13.63;;;6.95;;
64875;SDS011;51369;49.862;9.908;2023-03-07T10:27:31;11.00;;;7.18;;
64875;SDS011;51369;49.862;9.908;2023-03-07T10:29:57;13.25;;;6.93;;
64875;SDS011;51369;49.862;9.908;2023-03-07T10:35:12;13.02;;;6.95;;
64875;SDS011;51369;49.862;9.908;2023-03-07T10:42:56;11.13;;;7.07;;
64875;SDS011;51369;49.862;9.908;2023-03-07T10:45:23;11.20;;;6.95;;
64875;SDS011;51369;49.862;9.908;2023-03-07T10:47:53;10.85;;;7.05;;
64875;SDS011;51369;49.862;9.908;2023-03-07T10:50:22;10.75;;;7.15;;
64875;SDS011;51369;49.862;9.908;2023-03-07T10:52:59;10.32;;;6.15;;
64875;SDS011;51369;49.862;9.908;2023-03-07T10:55:35;12.77;;;7.20;;
64875;SDS011;51369;49.862;9.908;2023-03-07T11:03:38;9.10;;;5.68;;
64875;SDS011;51369;49.862;9.908;2023-03-07T11:09:03;11.05;;;7.00;;
64875;SDS011;51369;49.862;9.908;2023-03-07T11:11:34;11.50;;;7.18;;
64875;SDS011;51369;49.862;9.908;2023-03-07T11:14:04;14.02;;;6.55;;
64875;SDS011;51369;49.862;9.908;2023-03-07T11:19:32;9.25;;;5.78;;
64875;SDS011;51369;49.862;9.908;2023-03-07T11:22:01;11.95;;;5.65;;
64875;SDS011;51369;49.862;9.908;2023-03-07T11:24:30;13.27;;;6.85;;
64875;SDS011;51369;49.862;9.908;2023-03-07T11:27:02;10.65;;;6.38;;
64875;SDS011;51369;49.862;9.908;2023-03-07T11:29:28;13.73;;;6.38;;
64875;SDS011;51369;49.862;9.908;2023-03-07T11:34:46;15.05;;;7.18;;
64875;SDS011;51369;49.862;9.908;2023-03-07T11:37:23;10.27;;;6.30;;
64875;SDS011;51369;49.862;9.908;2023-03-07T11:43:08;9.30;;;5.97;;
64875;SDS011;51369;49.862;9.908;2023-03-07T11:45:49;9.50;;;6.07;;
64875;SDS011;51369;49.862;9.908;2023-03-07T11:48:28;12.50;;;6.05;;
64875;SDS011;51369;49.862;9.908;2023-03-07T11:50:57;10.93;;;6.53;;
64875;SDS011;51369;49.862;9.908;2023-03-07T11:58:31;9.43;;;5.90;;
64875;SDS011;51369;49.862;9.908;2023-03-07T12:01:06;11.80;;;5.65;;
64875;SDS011;51369;49.862;9.908;2023-03-07T12:04:05;8.65;;;5.72;;
64875;SDS011;51369;49.862;9.908;2023-03-07T12:12:28;11.60;;;5.97;;
64875;SDS011;51369;49.862;9.908;2023-03-07T12:15:19;11.13;;;6.47;;
64875;SDS011;51369;49.862;9.908;2023-03-07T12:18:31;8.68;;;5.50;;
64875;SDS011;51369;49.862;9.908;2023-03-07T12:24:06;11.48;;;5.95;;
64875;SDS011;51369;49.862;9.908;2023-03-07T12:29:55;10.50;;;6.63;;
64875;SDS011;51369;49.862;9.908;2023-03-07T12:32:28;9.25;;;5.78;;
64875;SDS011;51369;49.862;9.908;2023-03-07T12:37:40;12.90;;;6.90;;
64875;SDS011;51369;49.862;9.908;2023-03-07T12:45:13;9.20;;;6.05;;
64875;SDS011;51369;49.862;9.908;2023-03-07T12:50:25;16.45;;;7.70;;
64875;SDS011;51369;49.862;9.908;2023-03-07T12:53:00;11.35;;;6.43;;
64875;SDS011;51369;49.862;9.908;2023-03-07T12:55:34;12.15;;;6.75;;
64875;SDS011;51369;49.862;9.908;2023-03-07T13:00:49;13.85;;;6.35;;
64875;SDS011;51369;49.862;9.908;2023-03-07T13:03:27;10.13;;;6.38;;
64875;SDS011;51369;49.862;9.908;2023-03-07T13:06:05;11.70;;;6.45;;
64875;SDS011;51369;49.862;9.908;2023-03-07T13:08:36;9.80;;;6.20;;
64875;SDS011;51369;49.862;9.908;2023-03-07T13:11:03;14.88;;;6.10;;
64875;SDS011;51369;49.862;9.908;2023-03-07T13:16:09;13.75;;;7.30;;
64875;SDS011;51369;49.862;9.908;2023-03-07T13:18:37;11.15;;;6.78;;
64875;SDS011;51369;49.862;9.908;2023-03-07T13:21:07;10.60;;;7.00;;
64875;SDS011;51369;49.862;9.908;2023-03-07T13:23:34;12.13;;;6.47;;
64875;SDS011;51369;49.862;9.908;2023-03-07T13:26:04;10.52;;;6.78;;
64875;SDS011;51369;49.862;9.908;2023-03-07T13:28:32;17.55;;;6.60;;
64875;SDS011;51369;49.862;9.908;2023-03-07T13:33:40;10.52;;;6.47;;
64875;SDS011;51369;49.862;9.908;2023-03-07T13:36:51;8.73;;;5.60;;
64875;SDS011;51369;49.862;9.908;2023-03-07T13:39:02;12.60;;;6.05;;
64875;SDS011;51369;49.862;9.908;2023-03-07T13:41:48;8.95;;;5.68;;
64875;SDS011;51369;49.862;9.908;2023-03-07T13:44:25;11.60;;;6.80;;
64875;SDS011;51369;49.862;9.908;2023-03-07T13:46:51;9.07;;;6.53;;
64875;SDS011;51369;49.862;9.908;2023-03-07T13:49:36;12.13;;;6.25;;
64875;SDS011;51369;49.862;9.908;2023-03-07T13:52:39;8.23;;;5.80;;
64875;SDS011;51369;49.862;9.908;2023-03-07T13:55:02;11.63;;;6.32;;
64875;SDS011;51369;49.862;9.908;2023-03-07T13:57:38;10.57;;;5.78;;
64875;SDS011;51369;49.862;9.908;2023-03-07T14:00:18;8.68;;;5.82;;
64875;SDS011;51369;49.862;9.908;2023-03-07T14:02:48;9.88;;;6.13;;
64875;SDS011;51369;49.862;9.908;2023-03-07T14:05:13;12.70;;;6.75;;
64875;SDS011;51369;49.862;9.908;2023-03-07T14:07:39;11.05;;;6.53;;
64875;SDS011;51369;49.862;9.908;2023-03-07T14:15:31;11.18;;;6.50;;
64875;SDS011;51369;49.862;9.908;2023-03-07T14:23:27;12.80;;;6.82;;
64875;SDS011;51369;49.862;9.908;2023-03-07T14:26:42;13.23;;;6.95;;
64875;SDS011;51369;49.862;9.908;2023-03-07T14:29:18;13.00;;;7.72;;
64875;SDS011;51369;49.862;9.908;2023-03-07T14:31:48;13.30;;;7.43;;
64875;SDS011;51369;49.862;9.908;2023-03-07T14:37:01;15.85;;;7.80;;
64875;SDS011;51369;49.862;9.908;2023-03-07T14:39:37;12.45;;;7.50;;
64875;SDS011;51369;49.862;9.908;2023-03-07T14:45:25;22.13;;;9.00;;
64875;SDS011;51369;49.862;9.908;2023-03-07T14:48:24;16.52;;;8.57;;
64875;SDS011;51369;49.862;9.908;2023-03-07T14:51:20;15.80;;;7.78;;
64875;SDS011;51369;49.862;9.908;2023-03-07T14:53:48;14.98;;;8.07;;
64875;SDS011;51369;49.862;9.908;2023-03-07T14:56:21;13.05;;;7.45;;
64875;SDS011;51369;49.862;9.908;2023-03-07T14:58:51;12.05;;;6.97;;
64875;SDS011;51369;49.862;9.908;2023-03-07T15:01:29;11.45;;;6.75;;
64875;SDS011;51369;49.862;9.908;2023-03-07T15:03:56;12.30;;;6.95;;
64875;SDS011;51369;49.862;9.908;2023-03-07T15:06:25;13.63;;;7.20;;
64875;SDS011;51369;49.862;9.908;2023-03-07T15:08:54;16.20;;;7.22;;
64875;SDS011;51369;49.862;9.908;2023-03-07T15:13:59;13.38;;;7.68;;
64875;SDS011;51369;49.862;9.908;2023-03-07T15:16:39;12.73;;;7.00;;
64875;SDS011;51369;49.862;9.908;2023-03-07T15:19:13;14.52;;;8.23;;
64875;SDS011;51369;49.862;9.908;2023-03-07T15:21:46;17.15;;;7.28;;
64875;SDS011;51369;49.862;9.908;2023-03-07T15:24:23;11.82;;;7.25;;
64875;SDS011;51369;49.862;9.908;2023-03-07T15:26:54;11.07;;;6.55;;
64875;SDS011;51369;49.862;9.908;2023-03-07T15:29:21;10.80;;;6.97;;
64875;SDS011;51369;49.862;9.908;2023-03-07T15:31:55;10.38;;;6.15;;
64875;SDS011;51369;49.862;9.908;2023-03-07T15:34:27;18.15;;;8.25;;
64875;SDS011;51369;49.862;9.908;2023-03-07T15:36:55;14.90;;;6.90;;
64875;SDS011;51369;49.862;9.908;2023-03-07T15:39:52;13.90;;;7.10;;
64875;SDS011;51369;49.862;9.908;2023-03-07T15:42:21;15.07;;;7.28;;
64875;SDS011;51369;49.862;9.908;2023-03-07T15:44:56;15.90;;;7.43;;
64875;SDS011;51369;49.862;9.908;2023-03-07T15:47:23;14.23;;;7.05;;
64875;SDS011;51369;49.862;9.908;2023-03-07T15:49:52;10.07;;;6.35;;
64875;SDS011;51369;49.862;9.908;2023-03-07T15:52:27;12.95;;;7.57;;
64875;SDS011;51369;49.862;9.908;2023-03-07T15:54:56;12.88;;;7.13;;
64875;SDS011;51369;49.862;9.908;2023-03-07T15:57:25;19.25;;;7.22;;
64875;SDS011;51369;49.862;9.908;2023-03-07T15:59:58;12.98;;;7.47;;
64875;SDS011;51369;49.862;9.908;2023-03-07T16:05:46;12.30;;;7.50;;
64875;SDS011;51369;49.862;9.908;2023-03-07T16:07:49;12.48;;;7.20;;
64875;SDS011;51369;49.862;9.908;2023-03-07T16:10:17;11.25;;;6.85;;
64875;SDS011;51369;49.862;9.908;2023-03-07T16:12:43;13.80;;;7.30;;
64875;SDS011;51369;49.862;9.908;2023-03-07T16:15:14;10.75;;;6.82;;
64875;SDS011;51369;49.862;9.908;2023-03-07T16:17:41;13.48;;;7.50;;
64875;SDS011;51369;49.862;9.908;2023-03-07T16:20:17;13.02;;;7.25;;
64875;SDS011;51369;49.862;9.908;2023-03-07T16:22:45;12.05;;;6.93;;
64875;SDS011;51369;49.862;9.908;2023-03-07T16:25:11;12.85;;;7.15;;
64875;SDS011;51369;49.862;9.908;2023-03-07T16:27:37;12.75;;;6.78;;
64875;SDS011;51369;49.862;9.908;2023-03-07T16:30:16;13.10;;;7.53;;
64875;SDS011;51369;49.862;9.908;2023-03-07T16:32:44;15.52;;;6.88;;